sensor_id;sensor_type;location;lat;lon;timestamp;P1;durP1;ratioP1;P2;durP2;ratioP2
46765;SDS011;32527;51.986;5.842;2022-10-16T00:00:45;17.40;;;6.35;;
46765;SDS011;32527;51.986;5.842;2022-10-16T00:03:11;11.23;;;5.88;;
46765;SDS011;32527;51.986;5.842;2022-10-16T00:05:41;17.17;;;7.03;;
46765;SDS011;32527;51.986;5.842;2022-10-16T00:08:08;11.73;;;5.78;;
46765;SDS011;32527;51.986;5.842;2022-10-16T00:10:38;12.57;;;6.18;;
46765;SDS011;32527;51.986;5.842;2022-10-16T00:13:04;10.57;;;5.25;;
46765;SDS011;32527;51.986;5.842;2022-10-16T00:15:32;13.27;;;5.70;;
46765;SDS011;32527;51.986;5.842;2022-10-16T00:18:01;12.93;;;6.10;;
46765;SDS011;32527;51.986;5.842;2022-10-16T00:20:27;10.57;;;5.40;;
46765;SDS011;32527;51.986;5.842;2022-10-16T00:22:53;13.90;;;5.95;;
46765;SDS011;32527;51.986;5.842;2022-10-16T00:25:20;10.07;;;5.28;;
46765;SDS011;32527;51.986;5.842;2022-10-16T00:27:46;11.13;;;6.07;;
46765;SDS011;32527;51.986;5.842;2022-10-16T00:30:12;12.95;;;5.25;;
46765;SDS011;32527;51.986;5.842;2022-10-16T00:32:38;12.52;;;6.25;;
46765;SDS011;32527;51.986;5.842;2022-10-16T00:35:04;10.43;;;5.60;;
46765;SDS011;32527;51.986;5.842;2022-10-16T00:37:30;8.75;;;5.53;;
46765;SDS011;32527;51.986;5.842;2022-10-16T00:39:56;12.23;;;5.43;;
46765;SDS011;32527;51.986;5.842;2022-10-16T00:42:22;10.73;;;5.53;;
46765;SDS011;32527;51.986;5.842;2022-10-16T00:47:17;10.82;;;5.82;;
46765;SDS011;32527;51.986;5.842;2022-10-16T00:49:46;10.23;;;5.72;;
46765;SDS011;32527;51.986;5.842;2022-10-16T00:52:13;15.18;;;6.65;;
46765;SDS011;32527;51.986;5.842;2022-10-16T00:54:40;11.18;;;6.55;;
46765;SDS011;32527;51.986;5.842;2022-10-16T00:57:06;16.88;;;6.47;;
46765;SDS011;32527;51.986;5.842;2022-10-16T00:59:34;12.90;;;6.85;;
46765;SDS011;32527;51.986;5.842;2022-10-16T01:02:05;15.32;;;6.60;;
46765;SDS011;32527;51.986;5.842;2022-10-16T01:04:37;14.90;;;6.70;;
46765;SDS011;32527;51.986;5.842;2022-10-16T01:07:14;12.18;;;7.13;;
46765;SDS011;32527;51.986;5.842;2022-10-16T01:10:04;13.32;;;7.18;;
46765;SDS011;32527;51.986;5.842;2022-10-16T01:13:01;11.80;;;6.72;;
46765;SDS011;32527;51.986;5.842;2022-10-16T01:18:57;10.38;;;6.13;;
46765;SDS011;32527;51.986;5.842;2022-10-16T01:21:22;10.77;;;6.15;;
46765;SDS011;32527;51.986;5.842;2022-10-16T01:24:03;10.85;;;6.72;;
46765;SDS011;32527;51.986;5.842;2022-10-16T01:30:06;12.52;;;6.85;;
46765;SDS011;32527;51.986;5.842;2022-10-16T01:32:39;13.93;;;6.63;;
46765;SDS011;32527;51.986;5.842;2022-10-16T01:35:27;11.07;;;6.28;;
46765;SDS011;32527;51.986;5.842;2022-10-16T01:38:09;13.98;;;7.05;;
46765;SDS011;32527;51.986;5.842;2022-10-16T01:40:51;15.50;;;7.07;;
46765;SDS011;32527;51.986;5.842;2022-10-16T01:43:26;13.77;;;6.90;;
46765;SDS011;32527;51.986;5.842;2022-10-16T01:45:58;11.90;;;6.40;;
46765;SDS011;32527;51.986;5.842;2022-10-16T01:48:26;11.90;;;7.35;;
46765;SDS011;32527;51.986;5.842;2022-10-16T01:50:54;13.35;;;6.95;;
46765;SDS011;32527;51.986;5.842;2022-10-16T01:53:24;9.77;;;6.72;;
46765;SDS011;32527;51.986;5.842;2022-10-16T01:55:52;16.75;;;6.63;;
46765;SDS011;32527;51.986;5.842;2022-10-16T01:58:19;15.57;;;6.65;;
46765;SDS011;32527;51.986;5.842;2022-10-16T02:00:45;12.00;;;6.68;;
46765;SDS011;32527;51.986;5.842;2022-10-16T02:03:13;11.75;;;6.13;;
46765;SDS011;32527;51.986;5.842;2022-10-16T02:05:50;16.35;;;6.47;;
46765;SDS011;32527;51.986;5.842;2022-10-16T02:08:19;12.48;;;6.55;;
46765;SDS011;32527;51.986;5.842;2022-10-16T02:10:46;10.98;;;5.95;;
46765;SDS011;32527;51.986;5.842;2022-10-16T02:13:12;23.05;;;7.18;;
46765;SDS011;32527;51.986;5.842;2022-10-16T02:15:39;11.77;;;6.30;;
46765;SDS011;32527;51.986;5.842;2022-10-16T02:18:05;12.95;;;6.63;;
46765;SDS011;32527;51.986;5.842;2022-10-16T02:20:33;10.32;;;6.10;;
46765;SDS011;32527;51.986;5.842;2022-10-16T02:23:08;10.80;;;5.43;;
46765;SDS011;32527;51.986;5.842;2022-10-16T02:25:40;15.35;;;6.35;;
46765;SDS011;32527;51.986;5.842;2022-10-16T02:28:12;10.82;;;5.32;;
46765;SDS011;32527;51.986;5.842;2022-10-16T02:33:25;9.88;;;6.20;;
46765;SDS011;32527;51.986;5.842;2022-10-16T02:35:52;13.02;;;5.28;;
46765;SDS011;32527;51.986;5.842;2022-10-16T02:38:19;10.57;;;5.75;;
46765;SDS011;32527;51.986;5.842;2022-10-16T02:40:46;9.02;;;5.30;;
46765;SDS011;32527;51.986;5.842;2022-10-16T02:43:12;8.80;;;5.80;;
46765;SDS011;32527;51.986;5.842;2022-10-16T02:45:38;8.27;;;5.90;;
46765;SDS011;32527;51.986;5.842;2022-10-16T02:48:04;9.98;;;5.45;;
46765;SDS011;32527;51.986;5.842;2022-10-16T02:50:30;11.75;;;5.82;;
46765;SDS011;32527;51.986;5.842;2022-10-16T02:52:56;6.55;;;4.70;;
46765;SDS011;32527;51.986;5.842;2022-10-16T02:55:22;9.52;;;5.22;;
46765;SDS011;32527;51.986;5.842;2022-10-16T02:57:48;9.27;;;5.38;;
46765;SDS011;32527;51.986;5.842;2022-10-16T03:00:15;10.88;;;5.40;;
46765;SDS011;32527;51.986;5.842;2022-10-16T03:02:41;8.70;;;5.38;;
46765;SDS011;32527;51.986;5.842;2022-10-16T03:05:08;12.27;;;5.10;;
46765;SDS011;32527;51.986;5.842;2022-10-16T03:07:34;9.50;;;5.50;;
46765;SDS011;32527;51.986;5.842;2022-10-16T03:10:00;13.82;;;5.35;;
46765;SDS011;32527;51.986;5.842;2022-10-16T03:12:26;9.40;;;5.32;;
46765;SDS011;32527;51.986;5.842;2022-10-16T03:14:52;9.27;;;5.28;;
46765;SDS011;32527;51.986;5.842;2022-10-16T03:17:18;10.23;;;4.63;;
46765;SDS011;32527;51.986;5.842;2022-10-16T03:19:44;11.75;;;5.32;;
46765;SDS011;32527;51.986;5.842;2022-10-16T03:22:10;8.70;;;4.93;;
46765;SDS011;32527;51.986;5.842;2022-10-16T03:24:36;14.20;;;5.32;;
46765;SDS011;32527;51.986;5.842;2022-10-16T03:27:01;7.18;;;4.90;;
46765;SDS011;32527;51.986;5.842;2022-10-16T03:29:27;10.60;;;5.15;;
46765;SDS011;32527;51.986;5.842;2022-10-16T03:31:54;9.80;;;5.28;;
46765;SDS011;32527;51.986;5.842;2022-10-16T03:34:20;10.45;;;5.20;;
46765;SDS011;32527;51.986;5.842;2022-10-16T03:36:46;13.18;;;5.13;;
46765;SDS011;32527;51.986;5.842;2022-10-16T03:39:12;12.93;;;5.65;;
46765;SDS011;32527;51.986;5.842;2022-10-16T03:41:37;14.07;;;5.60;;
46765;SDS011;32527;51.986;5.842;2022-10-16T03:44:03;11.60;;;5.15;;
46765;SDS011;32527;51.986;5.842;2022-10-16T03:46:29;10.73;;;5.32;;
46765;SDS011;32527;51.986;5.842;2022-10-16T03:48:55;9.50;;;5.22;;
46765;SDS011;32527;51.986;5.842;2022-10-16T03:51:21;10.35;;;5.15;;
46765;SDS011;32527;51.986;5.842;2022-10-16T03:53:47;9.65;;;5.10;;
46765;SDS011;32527;51.986;5.842;2022-10-16T03:56:14;14.45;;;5.82;;
46765;SDS011;32527;51.986;5.842;2022-10-16T03:58:39;8.23;;;5.10;;
46765;SDS011;32527;51.986;5.842;2022-10-16T04:01:06;11.43;;;5.45;;
46765;SDS011;32527;51.986;5.842;2022-10-16T04:03:32;8.10;;;5.28;;
46765;SDS011;32527;51.986;5.842;2022-10-16T04:05:57;12.85;;;5.10;;
46765;SDS011;32527;51.986;5.842;2022-10-16T04:08:23;9.02;;;4.90;;
46765;SDS011;32527;51.986;5.842;2022-10-16T04:10:49;10.02;;;4.93;;
46765;SDS011;32527;51.986;5.842;2022-10-16T04:13:15;8.07;;;4.55;;
46765;SDS011;32527;51.986;5.842;2022-10-16T04:15:41;9.07;;;5.68;;
46765;SDS011;32527;51.986;5.842;2022-10-16T04:18:07;12.40;;;4.70;;
46765;SDS011;32527;51.986;5.842;2022-10-16T04:20:33;9.15;;;4.70;;
46765;SDS011;32527;51.986;5.842;2022-10-16T04:22:59;8.32;;;4.85;;
46765;SDS011;32527;51.986;5.842;2022-10-16T04:25:25;10.00;;;4.60;;
46765;SDS011;32527;51.986;5.842;2022-10-16T04:27:52;13.52;;;4.68;;
46765;SDS011;32527;51.986;5.842;2022-10-16T04:30:19;13.15;;;4.90;;
46765;SDS011;32527;51.986;5.842;2022-10-16T04:32:49;12.32;;;4.85;;
46765;SDS011;32527;51.986;5.842;2022-10-16T04:35:16;7.50;;;4.50;;
46765;SDS011;32527;51.986;5.842;2022-10-16T04:37:43;8.05;;;4.60;;
46765;SDS011;32527;51.986;5.842;2022-10-16T04:40:09;8.73;;;4.72;;
46765;SDS011;32527;51.986;5.842;2022-10-16T04:42:35;7.40;;;4.18;;
46765;SDS011;32527;51.986;5.842;2022-10-16T04:45:01;9.30;;;4.43;;
46765;SDS011;32527;51.986;5.842;2022-10-16T04:47:27;10.60;;;5.05;;
46765;SDS011;32527;51.986;5.842;2022-10-16T04:49:53;9.60;;;4.70;;
46765;SDS011;32527;51.986;5.842;2022-10-16T04:52:19;11.18;;;5.13;;
46765;SDS011;32527;51.986;5.842;2022-10-16T04:54:46;7.40;;;5.03;;
46765;SDS011;32527;51.986;5.842;2022-10-16T04:57:12;13.98;;;4.78;;
46765;SDS011;32527;51.986;5.842;2022-10-16T04:59:38;8.00;;;4.80;;
46765;SDS011;32527;51.986;5.842;2022-10-16T05:02:04;7.68;;;4.05;;
46765;SDS011;32527;51.986;5.842;2022-10-16T05:04:31;8.75;;;4.60;;
46765;SDS011;32527;51.986;5.842;2022-10-16T05:06:57;8.30;;;5.07;;
46765;SDS011;32527;51.986;5.842;2022-10-16T05:09:22;8.10;;;4.50;;
46765;SDS011;32527;51.986;5.842;2022-10-16T05:11:48;9.63;;;5.38;;
46765;SDS011;32527;51.986;5.842;2022-10-16T05:14:14;10.35;;;5.38;;
46765;SDS011;32527;51.986;5.842;2022-10-16T05:16:40;7.70;;;4.30;;
46765;SDS011;32527;51.986;5.842;2022-10-16T05:19:05;9.07;;;4.18;;
46765;SDS011;32527;51.986;5.842;2022-10-16T05:21:31;7.20;;;4.82;;
46765;SDS011;32527;51.986;5.842;2022-10-16T05:23:57;8.88;;;4.43;;
46765;SDS011;32527;51.986;5.842;2022-10-16T05:26:23;8.75;;;4.85;;
46765;SDS011;32527;51.986;5.842;2022-10-16T05:28:49;8.50;;;4.88;;
46765;SDS011;32527;51.986;5.842;2022-10-16T05:31:15;9.60;;;4.75;;
46765;SDS011;32527;51.986;5.842;2022-10-16T05:33:41;9.95;;;5.05;;
46765;SDS011;32527;51.986;5.842;2022-10-16T05:36:09;10.43;;;5.05;;
46765;SDS011;32527;51.986;5.842;2022-10-16T05:38:36;9.52;;;4.80;;
46765;SDS011;32527;51.986;5.842;2022-10-16T05:41:03;6.70;;;4.38;;
46765;SDS011;32527;51.986;5.842;2022-10-16T05:43:30;8.35;;;5.13;;
46765;SDS011;32527;51.986;5.842;2022-10-16T05:45:57;6.97;;;4.78;;
46765;SDS011;32527;51.986;5.842;2022-10-16T05:48:24;8.65;;;5.55;;
46765;SDS011;32527;51.986;5.842;2022-10-16T05:51:00;9.82;;;5.80;;
46765;SDS011;32527;51.986;5.842;2022-10-16T05:53:28;7.05;;;4.82;;
46765;SDS011;32527;51.986;5.842;2022-10-16T05:55:55;12.60;;;5.03;;
46765;SDS011;32527;51.986;5.842;2022-10-16T05:58:21;12.13;;;5.47;;
46765;SDS011;32527;51.986;5.842;2022-10-16T06:00:57;8.95;;;5.00;;
46765;SDS011;32527;51.986;5.842;2022-10-16T06:03:24;10.52;;;5.95;;
46765;SDS011;32527;51.986;5.842;2022-10-16T06:05:50;8.30;;;5.30;;
46765;SDS011;32527;51.986;5.842;2022-10-16T06:08:16;12.90;;;5.50;;
46765;SDS011;32527;51.986;5.842;2022-10-16T06:10:42;9.88;;;5.20;;
46765;SDS011;32527;51.986;5.842;2022-10-16T06:13:09;9.05;;;5.75;;
46765;SDS011;32527;51.986;5.842;2022-10-16T06:15:35;8.45;;;4.82;;
46765;SDS011;32527;51.986;5.842;2022-10-16T06:18:01;12.27;;;5.80;;
46765;SDS011;32527;51.986;5.842;2022-10-16T06:20:26;9.05;;;5.53;;
46765;SDS011;32527;51.986;5.842;2022-10-16T06:22:52;14.88;;;5.28;;
46765;SDS011;32527;51.986;5.842;2022-10-16T06:25:18;13.20;;;4.90;;
46765;SDS011;32527;51.986;5.842;2022-10-16T06:27:44;9.65;;;4.95;;
46765;SDS011;32527;51.986;5.842;2022-10-16T06:30:10;10.80;;;5.13;;
46765;SDS011;32527;51.986;5.842;2022-10-16T06:32:36;28.60;;;7.20;;
46765;SDS011;32527;51.986;5.842;2022-10-16T06:35:02;10.60;;;5.03;;
46765;SDS011;32527;51.986;5.842;2022-10-16T06:37:28;8.35;;;5.03;;
46765;SDS011;32527;51.986;5.842;2022-10-16T06:39:54;11.35;;;5.38;;
46765;SDS011;32527;51.986;5.842;2022-10-16T06:42:20;13.40;;;5.47;;
46765;SDS011;32527;51.986;5.842;2022-10-16T06:44:46;11.75;;;5.40;;
46765;SDS011;32527;51.986;5.842;2022-10-16T06:47:12;12.85;;;5.28;;
46765;SDS011;32527;51.986;5.842;2022-10-16T06:49:39;7.97;;;4.93;;
46765;SDS011;32527;51.986;5.842;2022-10-16T06:52:04;9.07;;;4.70;;
46765;SDS011;32527;51.986;5.842;2022-10-16T06:54:30;11.15;;;6.13;;
46765;SDS011;32527;51.986;5.842;2022-10-16T06:56:56;10.57;;;5.45;;
46765;SDS011;32527;51.986;5.842;2022-10-16T06:59:24;7.90;;;4.97;;
46765;SDS011;32527;51.986;5.842;2022-10-16T07:01:50;10.60;;;5.60;;
46765;SDS011;32527;51.986;5.842;2022-10-16T07:04:16;9.70;;;5.07;;
46765;SDS011;32527;51.986;5.842;2022-10-16T07:06:42;14.80;;;5.25;;
46765;SDS011;32527;51.986;5.842;2022-10-16T07:09:09;11.85;;;5.47;;
46765;SDS011;32527;51.986;5.842;2022-10-16T07:11:36;8.55;;;5.00;;
46765;SDS011;32527;51.986;5.842;2022-10-16T07:14:02;11.35;;;5.63;;
46765;SDS011;32527;51.986;5.842;2022-10-16T07:16:29;9.52;;;5.28;;
46765;SDS011;32527;51.986;5.842;2022-10-16T07:18:57;9.90;;;4.82;;
46765;SDS011;32527;51.986;5.842;2022-10-16T07:21:26;9.52;;;4.55;;
46765;SDS011;32527;51.986;5.842;2022-10-16T07:23:58;8.57;;;5.00;;
46765;SDS011;32527;51.986;5.842;2022-10-16T07:26:26;12.68;;;5.30;;
46765;SDS011;32527;51.986;5.842;2022-10-16T07:28:53;9.73;;;5.53;;
46765;SDS011;32527;51.986;5.842;2022-10-16T07:31:19;7.35;;;4.60;;
46765;SDS011;32527;51.986;5.842;2022-10-16T07:33:45;10.40;;;5.47;;
46765;SDS011;32527;51.986;5.842;2022-10-16T07:36:12;9.90;;;5.60;;
46765;SDS011;32527;51.986;5.842;2022-10-16T07:38:39;12.77;;;5.38;;
46765;SDS011;32527;51.986;5.842;2022-10-16T07:41:07;9.90;;;5.32;;
46765;SDS011;32527;51.986;5.842;2022-10-16T07:43:36;12.52;;;4.57;;
46765;SDS011;32527;51.986;5.842;2022-10-16T07:46:02;10.82;;;5.00;;
46765;SDS011;32527;51.986;5.842;2022-10-16T07:48:32;8.35;;;4.63;;
46765;SDS011;32527;51.986;5.842;2022-10-16T07:51:00;8.13;;;5.10;;
46765;SDS011;32527;51.986;5.842;2022-10-16T07:53:26;11.90;;;5.13;;
46765;SDS011;32527;51.986;5.842;2022-10-16T07:55:56;7.47;;;4.10;;
46765;SDS011;32527;51.986;5.842;2022-10-16T07:58:26;7.97;;;5.43;;
46765;SDS011;32527;51.986;5.842;2022-10-16T08:00:52;12.25;;;5.20;;
46765;SDS011;32527;51.986;5.842;2022-10-16T08:03:18;9.68;;;4.68;;
46765;SDS011;32527;51.986;5.842;2022-10-16T08:05:44;10.48;;;5.05;;
46765;SDS011;32527;51.986;5.842;2022-10-16T08:08:12;12.32;;;4.15;;
46765;SDS011;32527;51.986;5.842;2022-10-16T08:10:38;8.13;;;3.83;;
46765;SDS011;32527;51.986;5.842;2022-10-16T08:13:33;12.60;;;3.55;;
46765;SDS011;32527;51.986;5.842;2022-10-16T08:16:02;8.27;;;3.50;;
46765;SDS011;32527;51.986;5.842;2022-10-16T08:18:33;11.82;;;3.70;;
46765;SDS011;32527;51.986;5.842;2022-10-16T08:21:03;8.10;;;3.72;;
46765;SDS011;32527;51.986;5.842;2022-10-16T08:23:29;6.47;;;3.42;;
46765;SDS011;32527;51.986;5.842;2022-10-16T08:25:56;11.25;;;3.35;;
46765;SDS011;32527;51.986;5.842;2022-10-16T08:28:26;7.45;;;3.80;;
46765;SDS011;32527;51.986;5.842;2022-10-16T08:30:52;10.00;;;3.63;;
46765;SDS011;32527;51.986;5.842;2022-10-16T08:33:18;7.75;;;3.67;;
46765;SDS011;32527;51.986;5.842;2022-10-16T08:35:52;10.70;;;4.65;;
46765;SDS011;32527;51.986;5.842;2022-10-16T08:38:18;6.65;;;3.85;;
46765;SDS011;32527;51.986;5.842;2022-10-16T08:40:44;5.88;;;3.50;;
46765;SDS011;32527;51.986;5.842;2022-10-16T08:48:24;12.10;;;4.10;;
46765;SDS011;32527;51.986;5.842;2022-10-16T08:50:58;10.32;;;3.95;;
46765;SDS011;32527;51.986;5.842;2022-10-16T08:53:29;9.98;;;3.45;;
46765;SDS011;32527;51.986;5.842;2022-10-16T08:56:01;10.32;;;3.70;;
46765;SDS011;32527;51.986;5.842;2022-10-16T08:58:28;7.88;;;3.90;;
46765;SDS011;32527;51.986;5.842;2022-10-16T09:01:00;10.52;;;4.57;;
46765;SDS011;32527;51.986;5.842;2022-10-16T09:03:41;6.57;;;3.78;;
46765;SDS011;32527;51.986;5.842;2022-10-16T09:17:55;9.65;;;3.67;;
46765;SDS011;32527;51.986;5.842;2022-10-16T09:20:34;6.30;;;3.03;;
46765;SDS011;32527;51.986;5.842;2022-10-16T09:23:42;10.80;;;3.42;;
46765;SDS011;32527;51.986;5.842;2022-10-16T09:26:09;7.60;;;2.97;;
46765;SDS011;32527;51.986;5.842;2022-10-16T09:28:38;7.93;;;3.38;;
46765;SDS011;32527;51.986;5.842;2022-10-16T09:31:04;7.28;;;3.22;;
46765;SDS011;32527;51.986;5.842;2022-10-16T09:33:33;6.40;;;2.85;;
46765;SDS011;32527;51.986;5.842;2022-10-16T09:36:01;12.45;;;3.60;;
46765;SDS011;32527;51.986;5.842;2022-10-16T09:38:30;8.45;;;2.97;;
46765;SDS011;32527;51.986;5.842;2022-10-16T09:40:58;9.73;;;3.35;;
46765;SDS011;32527;51.986;5.842;2022-10-16T09:43:48;7.10;;;3.10;;
46765;SDS011;32527;51.986;5.842;2022-10-16T09:46:29;10.90;;;3.42;;
46765;SDS011;32527;51.986;5.842;2022-10-16T09:48:57;8.05;;;3.40;;
46765;SDS011;32527;51.986;5.842;2022-10-16T09:51:29;8.52;;;3.47;;
46765;SDS011;32527;51.986;5.842;2022-10-16T09:53:56;9.82;;;3.22;;
46765;SDS011;32527;51.986;5.842;2022-10-16T09:56:25;11.98;;;3.67;;
46765;SDS011;32527;51.986;5.842;2022-10-16T09:58:59;12.88;;;3.40;;
46765;SDS011;32527;51.986;5.842;2022-10-16T10:01:37;13.05;;;3.83;;
46765;SDS011;32527;51.986;5.842;2022-10-16T10:04:05;7.82;;;3.40;;
46765;SDS011;32527;51.986;5.842;2022-10-16T10:06:43;13.20;;;3.80;;
46765;SDS011;32527;51.986;5.842;2022-10-16T10:09:19;9.95;;;3.22;;
46765;SDS011;32527;51.986;5.842;2022-10-16T10:14:15;12.63;;;3.75;;
46765;SDS011;32527;51.986;5.842;2022-10-16T10:16:48;12.15;;;3.55;;
46765;SDS011;32527;51.986;5.842;2022-10-16T10:19:23;9.45;;;3.25;;
46765;SDS011;32527;51.986;5.842;2022-10-16T10:21:50;10.73;;;2.78;;
46765;SDS011;32527;51.986;5.842;2022-10-16T10:24:17;9.27;;;2.97;;
46765;SDS011;32527;51.986;5.842;2022-10-16T10:26:48;14.55;;;2.78;;
46765;SDS011;32527;51.986;5.842;2022-10-16T10:37:55;18.60;;;2.97;;
46765;SDS011;32527;51.986;5.842;2022-10-16T10:45:46;10.73;;;2.47;;
46765;SDS011;32527;51.986;5.842;2022-10-16T10:48:21;10.15;;;2.60;;
46765;SDS011;32527;51.986;5.842;2022-10-16T10:51:11;14.77;;;3.53;;
46765;SDS011;32527;51.986;5.842;2022-10-16T10:53:44;10.60;;;2.90;;
46765;SDS011;32527;51.986;5.842;2022-10-16T10:56:34;11.00;;;2.70;;
46765;SDS011;32527;51.986;5.842;2022-10-16T10:59:14;9.00;;;2.70;;
46765;SDS011;32527;51.986;5.842;2022-10-16T11:01:53;11.40;;;2.67;;
46765;SDS011;32527;51.986;5.842;2022-10-16T11:04:37;10.55;;;2.85;;
46765;SDS011;32527;51.986;5.842;2022-10-16T11:07:17;12.07;;;2.92;;
46765;SDS011;32527;51.986;5.842;2022-10-16T11:09:49;11.52;;;2.65;;
46765;SDS011;32527;51.986;5.842;2022-10-16T11:12:24;15.52;;;4.80;;
46765;SDS011;32527;51.986;5.842;2022-10-16T11:15:17;9.43;;;2.53;;
46765;SDS011;32527;51.986;5.842;2022-10-16T11:20:28;11.60;;;2.78;;
46765;SDS011;32527;51.986;5.842;2022-10-16T11:23:00;16.35;;;4.35;;
46765;SDS011;32527;51.986;5.842;2022-10-16T11:25:36;8.55;;;2.80;;
46765;SDS011;32527;51.986;5.842;2022-10-16T11:35:55;13.63;;;5.30;;
46765;SDS011;32527;51.986;5.842;2022-10-16T11:38:31;13.50;;;2.78;;
46765;SDS011;32527;51.986;5.842;2022-10-16T11:44:09;10.48;;;2.60;;
46765;SDS011;32527;51.986;5.842;2022-10-16T11:46:46;15.93;;;2.95;;
46765;SDS011;32527;51.986;5.842;2022-10-16T11:49:24;10.80;;;2.80;;
46765;SDS011;32527;51.986;5.842;2022-10-16T11:51:58;12.30;;;3.40;;
46765;SDS011;32527;51.986;5.842;2022-10-16T11:54:47;5.90;;;2.60;;
46765;SDS011;32527;51.986;5.842;2022-10-16T11:57:26;16.67;;;3.53;;
46765;SDS011;32527;51.986;5.842;2022-10-16T12:00:40;13.30;;;3.10;;
46765;SDS011;32527;51.986;5.842;2022-10-16T12:02:50;12.95;;;2.80;;
46765;SDS011;32527;51.986;5.842;2022-10-16T12:07:57;9.93;;;2.55;;
46765;SDS011;32527;51.986;5.842;2022-10-16T12:10:38;11.35;;;3.55;;
46765;SDS011;32527;51.986;5.842;2022-10-16T12:13:26;11.85;;;2.42;;
46765;SDS011;32527;51.986;5.842;2022-10-16T12:18:36;10.50;;;2.53;;
46765;SDS011;32527;51.986;5.842;2022-10-16T12:21:02;10.60;;;2.60;;
46765;SDS011;32527;51.986;5.842;2022-10-16T12:23:46;14.82;;;3.22;;
46765;SDS011;32527;51.986;5.842;2022-10-16T12:26:23;7.38;;;2.42;;
46765;SDS011;32527;51.986;5.842;2022-10-16T12:28:53;13.23;;;3.50;;
46765;SDS011;32527;51.986;5.842;2022-10-16T12:31:20;13.38;;;2.53;;
46765;SDS011;32527;51.986;5.842;2022-10-16T12:33:57;14.35;;;2.60;;
46765;SDS011;32527;51.986;5.842;2022-10-16T12:38:55;12.10;;;2.60;;
46765;SDS011;32527;51.986;5.842;2022-10-16T12:43:58;12.77;;;3.20;;
46765;SDS011;32527;51.986;5.842;2022-10-16T12:49:55;12.00;;;2.88;;
46765;SDS011;32527;51.986;5.842;2022-10-16T12:52:03;10.82;;;2.92;;
46765;SDS011;32527;51.986;5.842;2022-10-16T12:54:30;7.60;;;2.13;;
46765;SDS011;32527;51.986;5.842;2022-10-16T13:02:24;16.38;;;2.67;;
46765;SDS011;32527;51.986;5.842;2022-10-16T13:11:26;10.85;;;2.63;;
46765;SDS011;32527;51.986;5.842;2022-10-16T13:27:56;11.15;;;2.33;;
46765;SDS011;32527;51.986;5.842;2022-10-16T13:30:30;9.88;;;2.05;;
46765;SDS011;32527;51.986;5.842;2022-10-16T13:35:29;8.10;;;2.67;;
46765;SDS011;32527;51.986;5.842;2022-10-16T13:38:30;8.23;;;2.55;;
46765;SDS011;32527;51.986;5.842;2022-10-16T13:40:58;16.02;;;3.05;;
46765;SDS011;32527;51.986;5.842;2022-10-16T13:43:31;10.23;;;2.42;;
46765;SDS011;32527;51.986;5.842;2022-10-16T13:46:02;12.98;;;2.72;;
46765;SDS011;32527;51.986;5.842;2022-10-16T13:48:30;12.73;;;2.78;;
46765;SDS011;32527;51.986;5.842;2022-10-16T13:53:46;21.25;;;6.47;;
46765;SDS011;32527;51.986;5.842;2022-10-16T13:56:13;14.13;;;2.58;;
46765;SDS011;32527;51.986;5.842;2022-10-16T13:58:40;8.40;;;2.60;;
46765;SDS011;32527;51.986;5.842;2022-10-16T14:01:19;11.55;;;2.83;;
46765;SDS011;32527;51.986;5.842;2022-10-16T14:03:49;10.43;;;2.80;;
46765;SDS011;32527;51.986;5.842;2022-10-16T14:06:17;8.98;;;3.13;;
46765;SDS011;32527;51.986;5.842;2022-10-16T14:08:55;12.73;;;3.40;;
46765;SDS011;32527;51.986;5.842;2022-10-16T14:11:32;10.77;;;2.85;;
46765;SDS011;32527;51.986;5.842;2022-10-16T14:14:02;10.13;;;2.35;;
46765;SDS011;32527;51.986;5.842;2022-10-16T14:16:29;9.23;;;2.50;;
46765;SDS011;32527;51.986;5.842;2022-10-16T14:21:22;11.50;;;2.33;;
46765;SDS011;32527;51.986;5.842;2022-10-16T14:23:49;10.63;;;3.38;;
46765;SDS011;32527;51.986;5.842;2022-10-16T14:26:17;11.63;;;2.30;;
46765;SDS011;32527;51.986;5.842;2022-10-16T14:28:45;9.57;;;2.75;;
46765;SDS011;32527;51.986;5.842;2022-10-16T14:33:57;9.13;;;2.60;;
46765;SDS011;32527;51.986;5.842;2022-10-16T14:36:23;15.75;;;3.70;;
46765;SDS011;32527;51.986;5.842;2022-10-16T14:39:05;11.90;;;3.03;;
46765;SDS011;32527;51.986;5.842;2022-10-16T14:41:44;12.23;;;2.80;;
46765;SDS011;32527;51.986;5.842;2022-10-16T14:44:12;10.60;;;3.65;;
46765;SDS011;32527;51.986;5.842;2022-10-16T14:46:41;7.68;;;3.03;;
46765;SDS011;32527;51.986;5.842;2022-10-16T14:51:34;8.73;;;2.67;;
46765;SDS011;32527;51.986;5.842;2022-10-16T14:54:01;11.55;;;3.33;;
46765;SDS011;32527;51.986;5.842;2022-10-16T14:56:31;15.68;;;4.05;;
46765;SDS011;32527;51.986;5.842;2022-10-16T14:59:24;9.13;;;3.33;;
46765;SDS011;32527;51.986;5.842;2022-10-16T15:02:23;12.90;;;3.28;;
46765;SDS011;32527;51.986;5.842;2022-10-16T15:04:53;11.65;;;3.67;;
46765;SDS011;32527;51.986;5.842;2022-10-16T15:07:19;9.85;;;3.53;;
46765;SDS011;32527;51.986;5.842;2022-10-16T15:09:45;9.95;;;3.65;;
46765;SDS011;32527;51.986;5.842;2022-10-16T15:12:10;9.07;;;3.33;;
46765;SDS011;32527;51.986;5.842;2022-10-16T15:14:36;8.35;;;3.30;;
46765;SDS011;32527;51.986;5.842;2022-10-16T15:17:02;10.88;;;3.30;;
46765;SDS011;32527;51.986;5.842;2022-10-16T15:19:28;10.27;;;3.15;;
46765;SDS011;32527;51.986;5.842;2022-10-16T15:21:54;11.00;;;3.00;;
46765;SDS011;32527;51.986;5.842;2022-10-16T15:24:21;8.55;;;4.15;;
46765;SDS011;32527;51.986;5.842;2022-10-16T15:26:47;13.00;;;4.13;;
46765;SDS011;32527;51.986;5.842;2022-10-16T15:29:14;11.32;;;3.17;;
46765;SDS011;32527;51.986;5.842;2022-10-16T15:31:40;12.82;;;4.38;;
46765;SDS011;32527;51.986;5.842;2022-10-16T15:34:08;13.25;;;4.35;;
46765;SDS011;32527;51.986;5.842;2022-10-16T15:36:36;9.73;;;3.53;;
46765;SDS011;32527;51.986;5.842;2022-10-16T15:39:10;14.27;;;5.53;;
46765;SDS011;32527;51.986;5.842;2022-10-16T15:41:38;12.10;;;4.63;;
46765;SDS011;32527;51.986;5.842;2022-10-16T15:44:05;13.68;;;4.20;;
46765;SDS011;32527;51.986;5.842;2022-10-16T15:46:31;10.93;;;3.50;;
46765;SDS011;32527;51.986;5.842;2022-10-16T15:48:58;10.13;;;3.53;;
46765;SDS011;32527;51.986;5.842;2022-10-16T15:51:25;17.05;;;4.45;;
46765;SDS011;32527;51.986;5.842;2022-10-16T15:53:53;10.45;;;3.42;;
46765;SDS011;32527;51.986;5.842;2022-10-16T15:56:20;10.48;;;3.63;;
46765;SDS011;32527;51.986;5.842;2022-10-16T15:58:47;12.98;;;4.53;;
46765;SDS011;32527;51.986;5.842;2022-10-16T16:01:13;12.48;;;4.57;;
46765;SDS011;32527;51.986;5.842;2022-10-16T16:03:41;10.43;;;3.70;;
46765;SDS011;32527;51.986;5.842;2022-10-16T16:06:08;12.98;;;4.18;;
46765;SDS011;32527;51.986;5.842;2022-10-16T16:08:36;12.15;;;4.13;;
46765;SDS011;32527;51.986;5.842;2022-10-16T16:11:03;13.48;;;3.83;;
46765;SDS011;32527;51.986;5.842;2022-10-16T16:13:33;8.77;;;3.35;;
46765;SDS011;32527;51.986;5.842;2022-10-16T16:16:06;8.70;;;3.97;;
46765;SDS011;32527;51.986;5.842;2022-10-16T16:18:37;16.55;;;4.18;;
46765;SDS011;32527;51.986;5.842;2022-10-16T16:21:04;7.50;;;3.47;;
46765;SDS011;32527;51.986;5.842;2022-10-16T16:23:30;8.43;;;3.75;;
46765;SDS011;32527;51.986;5.842;2022-10-16T16:26:07;7.55;;;3.42;;
46765;SDS011;32527;51.986;5.842;2022-10-16T16:28:36;12.63;;;4.15;;
46765;SDS011;32527;51.986;5.842;2022-10-16T16:31:02;9.45;;;4.05;;
46765;SDS011;32527;51.986;5.842;2022-10-16T16:33:31;12.98;;;4.22;;
46765;SDS011;32527;51.986;5.842;2022-10-16T16:36:01;13.15;;;4.90;;
46765;SDS011;32527;51.986;5.842;2022-10-16T16:38:28;15.85;;;4.85;;
46765;SDS011;32527;51.986;5.842;2022-10-16T16:40:55;10.88;;;4.97;;
46765;SDS011;32527;51.986;5.842;2022-10-16T16:43:25;12.75;;;5.00;;
46765;SDS011;32527;51.986;5.842;2022-10-16T16:45:51;12.88;;;4.90;;